sensor_id;sensor_type;location;lat;lon;timestamp;pressure;altitude;pressure_sealevel;temperature;humidity
62697;BME280;48761;42.680;23.312;2023-10-19T00:01:20;94880.94;;;8.86;82.96
62697;BME280;48761;42.680;23.312;2023-10-19T00:03:46;94890.00;;;8.96;82.53
62697;BME280;48761;42.680;23.312;2023-10-19T00:06:12;94884.78;;;8.95;82.72
62697;BME280;48761;42.680;23.312;2023-10-19T00:08:38;94883.56;;;9.01;82.61
62697;BME280;48761;42.680;23.312;2023-10-19T00:11:04;94874.75;;;9.00;82.19
62697;BME280;48761;42.680;23.312;2023-10-19T00:13:30;94876.84;;;8.80;82.50
62697;BME280;48761;42.680;23.312;2023-10-19T00:15:56;94873.81;;;8.43;84.51
62697;BME280;48761;42.680;23.312;2023-10-19T00:18:22;94876.69;;;8.69;83.29
62697;BME280;48761;42.680;23.312;2023-10-19T00:20:53;94868.97;;;8.49;83.95
62697;BME280;48761;42.680;23.312;2023-10-19T00:23:20;94870.66;;;8.67;83.68
62697;BME280;48761;42.680;23.312;2023-10-19T00:25:47;94862.97;;;8.77;83.20
62697;BME280;48761;42.680;23.312;2023-10-19T00:28:13;94864.94;;;8.73;83.50
62697;BME280;48761;42.680;23.312;2023-10-19T00:30:39;94855.13;;;8.60;83.55
62697;BME280;48761;42.680;23.312;2023-10-19T00:33:04;94858.53;;;8.77;83.03
62697;BME280;48761;42.680;23.312;2023-10-19T00:35:33;94862.28;;;8.88;82.46
62697;BME280;48761;42.680;23.312;2023-10-19T00:38:00;94857.97;;;8.72;82.95
62697;BME280;48761;42.680;23.312;2023-10-19T00:40:26;94856.34;;;8.69;82.72
62697;BME280;48761;42.680;23.312;2023-10-19T00:42:52;94848.47;;;8.53;83.16
62697;BME280;48761;42.680;23.312;2023-10-19T00:45:17;94855.28;;;8.28;85.38
62697;BME280;48761;42.680;23.312;2023-10-19T00:47:43;94858.31;;;8.51;84.04
62697;BME280;48761;42.680;23.312;2023-10-19T00:50:09;94850.38;;;8.51;83.60
62697;BME280;48761;42.680;23.312;2023-10-19T00:52:35;94841.44;;;8.52;83.29
62697;BME280;48761;42.680;23.312;2023-10-19T00:55:01;94847.31;;;8.57;82.88
62697;BME280;48761;42.680;23.312;2023-10-19T00:57:27;94848.66;;;8.65;82.84
62697;BME280;48761;42.680;23.312;2023-10-19T00:59:53;94847.16;;;8.46;82.88
62697;BME280;48761;42.680;23.312;2023-10-19T01:02:20;94858.88;;;8.56;83.10
62697;BME280;48761;42.680;23.312;2023-10-19T01:04:51;94850.94;;;8.41;83.17
62697;BME280;48761;42.680;23.312;2023-10-19T01:07:17;94847.50;;;8.25;83.99
62697;BME280;48761;42.680;23.312;2023-10-19T01:09:43;94850.72;;;8.45;83.49
62697;BME280;48761;42.680;23.312;2023-10-19T01:12:09;94850.34;;;8.22;84.43
62697;BME280;48761;42.680;23.312;2023-10-19T01:14:35;94861.31;;;8.45;83.75
62697;BME280;48761;42.680;23.312;2023-10-19T01:17:01;94859.91;;;8.54;82.86
62697;BME280;48761;42.680;23.312;2023-10-19T01:19:27;94866.53;;;8.46;82.97
62697;BME280;48761;42.680;23.312;2023-10-19T01:21:53;94866.06;;;8.54;82.74
62697;BME280;48761;42.680;23.312;2023-10-19T01:24:19;94865.72;;;8.60;82.50
62697;BME280;48761;42.680;23.312;2023-10-19T01:26:45;94855.47;;;8.54;82.53
62697;BME280;48761;42.680;23.312;2023-10-19T01:29:11;94852.91;;;8.67;81.56
62697;BME280;48761;42.680;23.312;2023-10-19T01:31:37;94851.28;;;8.50;82.52
62697;BME280;48761;42.680;23.312;2023-10-19T01:34:03;94846.56;;;8.55;82.20
62697;BME280;48761;42.680;23.312;2023-10-19T01:36:29;94851.59;;;8.45;82.47
62697;BME280;48761;42.680;23.312;2023-10-19T01:38:56;94858.34;;;8.66;81.56
62697;BME280;48761;42.680;23.312;2023-10-19T01:41:24;94854.16;;;8.47;82.22
62697;BME280;48761;42.680;23.312;2023-10-19T01:43:51;94853.09;;;8.49;81.69
62697;BME280;48761;42.680;23.312;2023-10-19T01:46:18;94863.50;;;8.38;82.05
62697;BME280;48761;42.680;23.312;2023-10-19T01:48:43;94862.94;;;8.33;82.46
62697;BME280;48761;42.680;23.312;2023-10-19T01:51:10;94863.97;;;8.30;82.78
62697;BME280;48761;42.680;23.312;2023-10-19T01:53:38;94867.38;;;8.32;82.98
62697;BME280;48761;42.680;23.312;2023-10-19T01:56:04;94857.91;;;8.43;82.96
62697;BME280;48761;42.680;23.312;2023-10-19T01:58:29;94863.81;;;8.62;82.10
62697;BME280;48761;42.680;23.312;2023-10-19T02:00:55;94856.44;;;8.68;81.76
62697;BME280;48761;42.680;23.312;2023-10-19T02:03:21;94856.81;;;8.61;82.26
62697;BME280;48761;42.680;23.312;2023-10-19T02:05:47;94851.28;;;8.50;82.08
62697;BME280;48761;42.680;23.312;2023-10-19T02:08:13;94853.09;;;8.49;82.10
62697;BME280;48761;42.680;23.312;2023-10-19T02:10:39;94845.25;;;8.48;82.08
62697;BME280;48761;42.680;23.312;2023-10-19T02:13:08;94859.63;;;8.44;82.58
62697;BME280;48761;42.680;23.312;2023-10-19T02:15:34;94857.56;;;8.49;82.45
62697;BME280;48761;42.680;23.312;2023-10-19T02:18:01;94858.50;;;8.48;82.47
62697;BME280;48761;42.680;23.312;2023-10-19T02:20:28;94857.91;;;8.43;82.38
62697;BME280;48761;42.680;23.312;2023-10-19T02:22:56;94870.13;;;8.45;82.69
62697;BME280;48761;42.680;23.312;2023-10-19T02:25:21;94864.53;;;8.50;82.25
62697;BME280;48761;42.680;23.312;2023-10-19T02:27:47;94858.31;;;8.51;82.05
62697;BME280;48761;42.680;23.312;2023-10-19T02:30:13;94854.69;;;8.37;82.40
62697;BME280;48761;42.680;23.312;2023-10-19T02:32:39;94855.09;;;8.31;82.75
62697;BME280;48761;42.680;23.312;2023-10-19T02:35:05;94858.09;;;8.39;82.29
62697;BME280;48761;42.680;23.312;2023-10-19T02:37:31;94848.09;;;8.30;82.61
62697;BME280;48761;42.680;23.312;2023-10-19T02:39:57;94856.41;;;8.24;82.57
62697;BME280;48761;42.680;23.312;2023-10-19T02:42:23;94859.13;;;8.22;82.50
62697;BME280;48761;42.680;23.312;2023-10-19T02:44:49;94854.50;;;8.11;83.01
62697;BME280;48761;42.680;23.312;2023-10-19T02:47:15;94853.84;;;8.22;82.67
62697;BME280;48761;42.680;23.312;2023-10-19T02:49:41;94852.22;;;8.19;82.92
62697;BME280;48761;42.680;23.312;2023-10-19T02:52:06;94849.59;;;8.19;82.39
62697;BME280;48761;42.680;23.312;2023-10-19T02:54:32;94845.81;;;8.24;82.37
62697;BME280;48761;42.680;23.312;2023-10-19T02:56:58;94852.22;;;8.19;82.35
62697;BME280;48761;42.680;23.312;2023-10-19T02:59:26;94843.19;;;8.24;82.09
62697;BME280;48761;42.680;23.312;2023-10-19T03:01:57;94854.88;;;8.34;81.59
62697;BME280;48761;42.680;23.312;2023-10-19T03:04:23;94849.03;;;8.44;80.90
62697;BME280;48761;42.680;23.312;2023-10-19T03:06:49;94819.88;;;8.14;81.41
62697;BME280;48761;42.680;23.312;2023-10-19T03:09:15;94848.66;;;8.21;81.51
62697;BME280;48761;42.680;23.312;2023-10-19T03:11:42;94848.84;;;8.17;82.04
62697;BME280;48761;42.680;23.312;2023-10-19T03:14:09;94849.97;;;7.99;82.26
62697;BME280;48761;42.680;23.312;2023-10-19T03:16:38;94845.50;;;7.99;82.46
62697;BME280;48761;42.680;23.312;2023-10-19T03:19:04;94842.47;;;7.91;83.27
62697;BME280;48761;42.680;23.312;2023-10-19T03:21:30;94842.03;;;7.99;82.60
62697;BME280;48761;42.680;23.312;2023-10-19T03:23:56;94846.47;;;8.13;82.03
62697;BME280;48761;42.680;23.312;2023-10-19T03:26:22;94848.41;;;7.80;83.52
62697;BME280;48761;42.680;23.312;2023-10-19T03:28:51;94852.56;;;7.84;83.80
62697;BME280;48761;42.680;23.312;2023-10-19T03:31:17;94853.47;;;8.14;82.36
62697;BME280;48761;42.680;23.312;2023-10-19T03:33:46;94850.03;;;8.12;82.35
62697;BME280;48761;42.680;23.312;2023-10-19T03:36:12;94845.78;;;8.09;82.54
62697;BME280;48761;42.680;23.312;2023-10-19T03:38:39;94840.59;;;8.22;82.02
62697;BME280;48761;42.680;23.312;2023-10-19T03:41:05;94847.88;;;8.04;81.84
62697;BME280;48761;42.680;23.312;2023-10-19T03:43:31;94837.47;;;8.01;82.18
62697;BME280;48761;42.680;23.312;2023-10-19T03:45:56;94833.88;;;8.02;82.37
62697;BME280;48761;42.680;23.312;2023-10-19T03:48:22;94836.91;;;7.95;82.77
62697;BME280;48761;42.680;23.312;2023-10-19T03:50:50;94830.28;;;8.03;82.22
62697;BME280;48761;42.680;23.312;2023-10-19T03:53:16;94825.16;;;8.00;82.03
62697;BME280;48761;42.680;23.312;2023-10-19T03:55:42;94816.13;;;8.04;81.93
62697;BME280;48761;42.680;23.312;2023-10-19T03:58:07;94822.34;;;8.17;81.44
62697;BME280;48761;42.680;23.312;2023-10-19T04:00:33;94822.63;;;8.13;81.79
62697;BME280;48761;42.680;23.312;2023-10-19T04:02:59;94822.91;;;8.08;81.89
62697;BME280;48761;42.680;23.312;2023-10-19T04:05:25;94817.22;;;8.00;82.50
62697;BME280;48761;42.680;23.312;2023-10-19T04:07:51;94819.88;;;8.00;82.20
62697;BME280;48761;42.680;23.312;2023-10-19T04:10:17;94819.88;;;8.00;82.35
62697;BME280;48761;42.680;23.312;2023-10-19T04:12:43;94829.69;;;7.83;83.14
62697;BME280;48761;42.680;23.312;2023-10-19T04:15:10;94832.69;;;7.77;83.71
62697;BME280;48761;42.680;23.312;2023-10-19T04:17:36;94834.81;;;7.86;82.99
62697;BME280;48761;42.680;23.312;2023-10-19T04:20:03;94817.50;;;7.49;84.63
62697;BME280;48761;42.680;23.312;2023-10-19T04:22:29;94826.28;;;7.81;84.19
62697;BME280;48761;42.680;23.312;2023-10-19T04:24:55;94829.03;;;7.94;83.32
62697;BME280;48761;42.680;23.312;2023-10-19T04:27:20;94835.75;;;8.00;82.93
62697;BME280;48761;42.680;23.312;2023-10-19T04:29:48;94824.59;;;7.94;83.15
62697;BME280;48761;42.680;23.312;2023-10-19T04:32:13;94823.28;;;8.02;82.95
62697;BME280;48761;42.680;23.312;2023-10-19T04:34:40;94813.25;;;7.92;82.90
62697;BME280;48761;42.680;23.312;2023-10-19T04:37:06;94817.41;;;7.96;82.85
62697;BME280;48761;42.680;23.312;2023-10-19T04:39:32;94818.72;;;7.89;83.21
62697;BME280;48761;42.680;23.312;2023-10-19T04:41:58;94818.66;;;7.91;82.97
62697;BME280;48761;42.680;23.312;2023-10-19T04:44:24;94810.16;;;8.00;82.51
62697;BME280;48761;42.680;23.312;2023-10-19T04:46:50;94815.53;;;7.99;82.88
62697;BME280;48761;42.680;23.312;2023-10-19T04:49:16;94816.28;;;8.01;82.71
62697;BME280;48761;42.680;23.312;2023-10-19T04:51:42;94803.53;;;7.93;83.60
62697;BME280;48761;42.680;23.312;2023-10-19T04:54:08;94797.00;;;7.99;83.40
62697;BME280;48761;42.680;23.312;2023-10-19T04:56:34;94807.59;;;7.99;83.59
62697;BME280;48761;42.680;23.312;2023-10-19T04:59:00;94804.16;;;7.96;83.51
62697;BME280;48761;42.680;23.312;2023-10-19T05:01:26;94804.38;;;8.08;83.42
62697;BME280;48761;42.680;23.312;2023-10-19T05:03:52;94803.44;;;8.38;82.26
62697;BME280;48761;42.680;23.312;2023-10-19T05:06:17;94814.69;;;8.42;82.15
62697;BME280;48761;42.680;23.312;2023-10-19T05:08:43;94807.88;;;8.38;82.07
62697;BME280;48761;42.680;23.312;2023-10-19T05:11:09;94814.03;;;8.24;83.08
62697;BME280;48761;42.680;23.312;2023-10-19T05:13:35;94816.59;;;8.25;83.79
62697;BME280;48761;42.680;23.312;2023-10-19T05:16:01;94823.59;;;8.26;84.74
62697;BME280;48761;42.680;23.312;2023-10-19T05:18:27;94812.13;;;8.70;83.02
62697;BME280;48761;42.680;23.312;2023-10-19T05:20:53;94811.00;;;8.15;84.53
62697;BME280;48761;42.680;23.312;2023-10-19T05:23:19;94816.66;;;8.09;85.54
62697;BME280;48761;42.680;23.312;2023-10-19T05:25:44;94809.31;;;8.58;84.95
62697;BME280;48761;42.680;23.312;2023-10-19T05:28:10;94811.84;;;9.17;82.90
62697;BME280;48761;42.680;23.312;2023-10-19T05:30:36;94816.50;;;9.54;81.10
62697;BME280;48761;42.680;23.312;2023-10-19T05:33:02;94821.00;;;9.67;80.92
62697;BME280;48761;42.680;23.312;2023-10-19T05:35:29;94828.81;;;9.96;80.06
62697;BME280;48761;42.680;23.312;2023-10-19T05:37:58;94826.06;;;10.24;78.77
62697;BME280;48761;42.680;23.312;2023-10-19T05:40:24;94825.19;;;10.36;78.42
62697;BME280;48761;42.680;23.312;2023-10-19T05:42:50;94825.50;;;10.71;76.79
62697;BME280;48761;42.680;23.312;2023-10-19T05:45:16;94830.59;;;10.48;76.86
62697;BME280;48761;42.680;23.312;2023-10-19T05:47:43;94832.38;;;10.86;76.06
62697;BME280;48761;42.680;23.312;2023-10-19T05:50:09;94829.97;;;11.08;74.74
62697;BME280;48761;42.680;23.312;2023-10-19T05:52:35;94830.47;;;10.89;74.66
62697;BME280;48761;42.680;23.312;2023-10-19T05:55:01;94822.53;;;10.62;75.43
62697;BME280;48761;42.680;23.312;2023-10-19T05:57:27;94832.75;;;10.56;75.62
62697;BME280;48761;42.680;23.312;2023-10-19T05:59:53;94838.03;;;10.42;76.01
62697;BME280;48761;42.680;23.312;2023-10-19T06:02:19;94841.66;;;10.54;76.02
62697;BME280;48761;42.680;23.312;2023-10-19T06:04:45;94834.44;;;10.43;75.95
62697;BME280;48761;42.680;23.312;2023-10-19T06:07:11;94823.81;;;10.43;76.00
62697;BME280;48761;42.680;23.312;2023-10-19T06:09:36;94841.22;;;10.48;75.54
62697;BME280;48761;42.680;23.312;2023-10-19T06:12:03;94841.22;;;9.95;77.88
62697;BME280;48761;42.680;23.312;2023-10-19T06:14:29;94835.06;;;10.34;76.64
62697;BME280;48761;42.680;23.312;2023-10-19T06:16:54;94833.38;;;10.33;76.36
62697;BME280;48761;42.680;23.312;2023-10-19T06:19:20;94837.63;;;10.23;76.89
62697;BME280;48761;42.680;23.312;2023-10-19T06:21:46;94833.56;;;9.91;77.92
62697;BME280;48761;42.680;23.312;2023-10-19T06:24:12;94829.25;;;9.21;81.33
62697;BME280;48761;42.680;23.312;2023-10-19T06:26:38;94831.34;;;9.44;81.39
62697;BME280;48761;42.680;23.312;2023-10-19T06:29:04;94836.09;;;9.79;79.55
62697;BME280;48761;42.680;23.312;2023-10-19T06:31:30;94827.34;;;9.64;79.21
62697;BME280;48761;42.680;23.312;2023-10-19T06:33:56;94832.00;;;9.47;79.62
62697;BME280;48761;42.680;23.312;2023-10-19T06:36:22;94828.69;;;9.16;80.88
62697;BME280;48761;42.680;23.312;2023-10-19T06:38:47;94835.34;;;9.36;80.33
62697;BME280;48761;42.680;23.312;2023-10-19T06:41:14;94830.91;;;9.37;80.27
62697;BME280;48761;42.680;23.312;2023-10-19T06:43:40;94834.19;;;9.13;81.57
62697;BME280;48761;42.680;23.312;2023-10-19T06:46:06;94845.84;;;9.10;82.45
62697;BME280;48761;42.680;23.312;2023-10-19T06:48:32;94843.91;;;9.55;81.03
62697;BME280;48761;42.680;23.312;2023-10-19T06:50:58;94832.47;;;9.67;80.25
62697;BME280;48761;42.680;23.312;2023-10-19T06:53:24;94842.84;;;10.11;78.66
62697;BME280;48761;42.680;23.312;2023-10-19T06:55:50;94834.03;;;10.24;77.59
62697;BME280;48761;42.680;23.312;2023-10-19T06:58:16;94833.69;;;10.15;77.83
62697;BME280;48761;42.680;23.312;2023-10-19T07:00:42;94825.94;;;10.12;78.13
62697;BME280;48761;42.680;23.312;2023-10-19T07:03:08;94820.59;;;9.86;79.47
62697;BME280;48761;42.680;23.312;2023-10-19T07:05:34;94815.25;;;9.60;80.12
62697;BME280;48761;42.680;23.312;2023-10-19T07:08:00;94816.06;;;9.47;80.41
62697;BME280;48761;42.680;23.312;2023-10-19T07:10:26;94802.72;;;9.62;80.27
62697;BME280;48761;42.680;23.312;2023-10-19T07:12:56;94824.97;;;9.87;80.37
62697;BME280;48761;42.680;23.312;2023-10-19T07:15:23;94824.41;;;9.82;80.43
62697;BME280;48761;42.680;23.312;2023-10-19T07:17:49;94820.78;;;9.70;80.48
62697;BME280;48761;42.680;23.312;2023-10-19T07:20:16;94829.63;;;9.96;80.45
62697;BME280;48761;42.680;23.312;2023-10-19T07:22:42;94817.03;;;10.13;79.30
62697;BME280;48761;42.680;23.312;2023-10-19T07:25:08;94816.69;;;10.05;80.18
62697;BME280;48761;42.680;23.312;2023-10-19T07:27:34;94817.84;;;10.14;80.16
62697;BME280;48761;42.680;23.312;2023-10-19T07:30:01;94825.09;;;10.25;79.67
62697;BME280;48761;42.680;23.312;2023-10-19T07:32:28;94822.63;;;10.48;79.02
62697;BME280;48761;42.680;23.312;2023-10-19T07:34:54;94827.00;;;10.36;79.22
62697;BME280;48761;42.680;23.312;2023-10-19T07:37:21;94822.53;;;10.36;79.13
62697;BME280;48761;42.680;23.312;2023-10-19T07:39:47;94833.47;;;10.45;78.20
62697;BME280;48761;42.680;23.312;2023-10-19T07:42:16;94826.34;;;10.32;78.76
62697;BME280;48761;42.680;23.312;2023-10-19T07:44:42;94826.47;;;10.43;78.60
62697;BME280;48761;42.680;23.312;2023-10-19T07:47:11;94831.69;;;10.58;77.94
62697;BME280;48761;42.680;23.312;2023-10-19T07:49:38;94843.78;;;11.38;76.38
62697;BME280;48761;42.680;23.312;2023-10-19T07:52:07;94840.00;;;11.53;75.04
62697;BME280;48761;42.680;23.312;2023-10-19T07:54:34;94831.69;;;11.94;73.52
62697;BME280;48761;42.680;23.312;2023-10-19T07:57:03;94835.19;;;12.54;72.24
62697;BME280;48761;42.680;23.312;2023-10-19T07:59:29;94836.78;;;12.68;70.22
62697;BME280;48761;42.680;23.312;2023-10-19T08:01:55;94833.38;;;12.77;69.70
62697;BME280;48761;42.680;23.312;2023-10-19T08:04:21;94832.63;;;13.10;68.73
62697;BME280;48761;42.680;23.312;2023-10-19T08:06:47;94833.25;;;13.91;66.55
62697;BME280;48761;42.680;23.312;2023-10-19T08:09:13;94837.16;;;14.30;64.11
62697;BME280;48761;42.680;23.312;2023-10-19T08:11:38;94832.13;;;14.58;62.97
62697;BME280;48761;42.680;23.312;2023-10-19T08:14:04;94828.63;;;14.67;62.52
62697;BME280;48761;42.680;23.312;2023-10-19T08:16:30;94825.72;;;14.49;63.53
62697;BME280;48761;42.680;23.312;2023-10-19T08:18:57;94820.34;;;14.39;63.48
62697;BME280;48761;42.680;23.312;2023-10-19T08:21:23;94820.94;;;14.43;63.31
62697;BME280;48761;42.680;23.312;2023-10-19T08:23:49;94821.63;;;13.81;64.94
62697;BME280;48761;42.680;23.312;2023-10-19T08:26:15;94820.69;;;13.70;65.52
62697;BME280;48761;42.680;23.312;2023-10-19T08:28:41;94823.44;;;14.13;64.61
62697;BME280;48761;42.680;23.312;2023-10-19T08:31:10;94823.09;;;14.28;63.86
62697;BME280;48761;42.680;23.312;2023-10-19T08:33:36;94821.81;;;13.23;65.82
62697;BME280;48761;42.680;23.312;2023-10-19T08:36:02;94824.34;;;14.55;63.26
62697;BME280;48761;42.680;23.312;2023-10-19T08:38:28;94817.25;;;14.44;62.89
62697;BME280;48761;42.680;23.312;2023-10-19T08:40:54;94824.97;;;14.59;62.99
62697;BME280;48761;42.680;23.312;2023-10-19T08:43:20;94831.03;;;15.53;60.37
62697;BME280;48761;42.680;23.312;2023-10-19T08:45:46;94820.59;;;13.93;62.11
62697;BME280;48761;42.680;23.312;2023-10-19T08:48:13;94824.13;;;13.72;63.31
62697;BME280;48761;42.680;23.312;2023-10-19T08:50:39;94827.59;;;14.27;62.76
62697;BME280;48761;42.680;23.312;2023-10-19T08:53:07;94817.59;;;13.65;63.84
62697;BME280;48761;42.680;23.312;2023-10-19T08:55:34;94814.03;;;13.20;65.50
62697;BME280;48761;42.680;23.312;2023-10-19T08:58:00;94815.53;;;13.90;64.16
62697;BME280;48761;42.680;23.312;2023-10-19T09:00:27;94823.56;;;14.64;62.34
62697;BME280;48761;42.680;23.312;2023-10-19T09:02:53;94832.81;;;15.23;60.57
62697;BME280;48761;42.680;23.312;2023-10-19T09:05:20;94826.94;;;15.59;59.13
62697;BME280;48761;42.680;23.312;2023-10-19T09:07:47;94822.59;;;16.28;57.19
62697;BME280;48761;42.680;23.312;2023-10-19T09:10:16;94809.22;;;16.08;56.92
62697;BME280;48761;42.680;23.312;2023-10-19T09:12:42;94808.28;;;15.28;59.02
62697;BME280;48761;42.680;23.312;2023-10-19T09:15:21;94798.69;;;14.74;59.96
62697;BME280;48761;42.680;23.312;2023-10-19T09:17:47;94796.75;;;14.54;60.73
62697;BME280;48761;42.680;23.312;2023-10-19T09:20:13;94801.06;;;15.08;59.28
62697;BME280;48761;42.680;23.312;2023-10-19T09:22:39;94783.22;;;15.39;58.59
62697;BME280;48761;42.680;23.312;2023-10-19T09:25:05;94787.44;;;15.31;59.11
62697;BME280;48761;42.680;23.312;2023-10-19T09:27:32;94772.78;;;15.75;57.31
62697;BME280;48761;42.680;23.312;2023-10-19T09:29:58;94765.19;;;15.31;58.60
62697;BME280;48761;42.680;23.312;2023-10-19T09:32:25;94773.28;;;14.99;60.21
62697;BME280;48761;42.680;23.312;2023-10-19T09:34:52;94773.47;;;15.18;59.61
62697;BME280;48761;42.680;23.312;2023-10-19T09:37:18;94765.59;;;14.75;60.11
62697;BME280;48761;42.680;23.312;2023-10-19T09:39:44;94762.16;;;15.04;59.14
62697;BME280;48761;42.680;23.312;2023-10-19T09:42:11;94763.63;;;14.77;60.59
62697;BME280;48761;42.680;23.312;2023-10-19T09:44:59;94755.44;;;14.68;60.58
62697;BME280;48761;42.680;23.312;2023-10-19T09:47:35;94756.50;;;14.87;60.12
62697;BME280;48761;42.680;23.312;2023-10-19T09:50:05;94749.72;;;14.52;61.23
62697;BME280;48761;42.680;23.312;2023-10-19T09:52:32;94753.66;;;14.48;61.69
62697;BME280;48761;42.680;23.312;2023-10-19T09:55:22;94744.13;;;14.55;61.33
62697;BME280;48761;42.680;23.312;2023-10-19T09:58:31;94751.06;;;14.67;61.31
62697;BME280;48761;42.680;23.312;2023-10-19T10:01:02;94746.91;;;14.43;61.70
62697;BME280;48761;42.680;23.312;2023-10-19T10:03:50;94739.22;;;14.29;62.69
62697;BME280;48761;42.680;23.312;2023-10-19T10:06:27;94734.06;;;14.37;62.85
62697;BME280;48761;42.680;23.312;2023-10-19T10:08:54;94733.44;;;14.55;62.27
62697;BME280;48761;42.680;23.312;2023-10-19T10:11:24;94730.03;;;14.53;62.38
62697;BME280;48761;42.680;23.312;2023-10-19T10:13:50;94725.19;;;14.37;63.45
62697;BME280;48761;42.680;23.312;2023-10-19T10:16:18;94726.34;;;14.44;63.47
62697;BME280;48761;42.680;23.312;2023-10-19T10:18:46;94727.31;;;14.84;62.07
62697;BME280;48761;42.680;23.312;2023-10-19T10:21:13;94731.56;;;14.97;61.85
62697;BME280;48761;42.680;23.312;2023-10-19T10:23:41;94710.75;;;15.10;61.33
62697;BME280;48761;42.680;23.312;2023-10-19T10:26:09;94715.84;;;15.04;62.19
62697;BME280;48761;42.680;23.312;2023-10-19T10:28:35;94703.72;;;15.59;61.18
62697;BME280;48761;42.680;23.312;2023-10-19T10:31:11;94701.16;;;15.87;59.92
62697;BME280;48761;42.680;23.312;2023-10-19T10:33:47;94689.47;;;16.27;58.66
62697;BME280;48761;42.680;23.312;2023-10-19T10:36:14;94700.28;;;16.07;59.17
62697;BME280;48761;42.680;23.312;2023-10-19T10:38:41;94692.81;;;16.39;59.03
62697;BME280;48761;42.680;23.312;2023-10-19T10:41:07;94680.38;;;15.99;59.11
62697;BME280;48761;42.680;23.312;2023-10-19T10:43:33;94673.69;;;16.52;57.71
62697;BME280;48761;42.680;23.312;2023-10-19T10:46:05;94653.13;;;16.42;57.86
62697;BME280;48761;42.680;23.312;2023-10-19T10:48:31;94656.50;;;16.73;57.81
62697;BME280;48761;42.680;23.312;2023-10-19T10:50:57;94656.19;;;16.19;58.45
62697;BME280;48761;42.680;23.312;2023-10-19T10:53:23;94647.50;;;15.97;58.54
62697;BME280;48761;42.680;23.312;2023-10-19T10:55:49;94647.25;;;16.57;57.69
62697;BME280;48761;42.680;23.312;2023-10-19T10:58:16;94643.88;;;16.55;56.69
62697;BME280;48761;42.680;23.312;2023-10-19T11:00:46;94632.66;;;16.41;57.15
62697;BME280;48761;42.680;23.312;2023-10-19T11:03:12;94630.25;;;16.66;56.68
62697;BME280;48761;42.680;23.312;2023-10-19T11:05:38;94622.28;;;16.28;57.68
62697;BME280;48761;42.680;23.312;2023-10-19T11:08:13;94631.94;;;16.67;57.01
62697;BME280;48761;42.680;23.312;2023-10-19T11:10:40;94621.44;;;16.74;56.86
62697;BME280;48761;42.680;23.312;2023-10-19T11:13:08;94617.84;;;16.65;57.92
62697;BME280;48761;42.680;23.312;2023-10-19T11:15:36;94608.38;;;17.26;56.54
62697;BME280;48761;42.680;23.312;2023-10-19T11:18:03;94612.03;;;17.25;56.14
62697;BME280;48761;42.680;23.312;2023-10-19T11:20:29;94620.53;;;17.02;56.27
62697;BME280;48761;42.680;23.312;2023-10-19T11:22:56;94604.38;;;16.94;56.68
62697;BME280;48761;42.680;23.312;2023-10-19T11:25:25;94599.91;;;16.84;56.60
62697;BME280;48761;42.680;23.312;2023-10-19T11:27:51;94596.53;;;16.82;56.55
62697;BME280;48761;42.680;23.312;2023-10-19T11:30:31;94597.66;;;16.61;57.34
62697;BME280;48761;42.680;23.312;2023-10-19T11:32:58;94579.44;;;16.65;57.26
62697;BME280;48761;42.680;23.312;2023-10-19T11:35:25;94578.00;;;16.71;56.91
62697;BME280;48761;42.680;23.312;2023-10-19T11:37:55;94574.75;;;16.85;57.17
62697;BME280;48761;42.680;23.312;2023-10-19T11:40:23;94567.31;;;16.97;57.26
62697;BME280;48761;42.680;23.312;2023-10-19T11:42:50;94563.63;;;16.98;57.27
62697;BME280;48761;42.680;23.312;2023-10-19T11:45:16;94565.09;;;16.92;57.30
62697;BME280;48761;42.680;23.312;2023-10-19T11:47:43;94559.34;;;17.06;56.75
62697;BME280;48761;42.680;23.312;2023-10-19T11:50:09;94566.63;;;17.13;56.99
62697;BME280;48761;42.680;23.312;2023-10-19T11:52:35;94550.31;;;16.88;57.86
62697;BME280;48761;42.680;23.312;2023-10-19T11:55:01;94558.09;;;17.36;55.90
62697;BME280;48761;42.680;23.312;2023-10-19T11:57:27;94559.47;;;17.22;56.58
62697;BME280;48761;42.680;23.312;2023-10-19T11:59:53;94561.94;;;17.34;56.03
62697;BME280;48761;42.680;23.312;2023-10-19T12:02:19;94561.25;;;17.13;56.46
62697;BME280;48761;42.680;23.312;2023-10-19T12:04:45;94555.81;;;17.23;56.70
62697;BME280;48761;42.680;23.312;2023-10-19T12:07:11;94552.88;;;17.17;57.31
62697;BME280;48761;42.680;23.312;2023-10-19T12:09:37;94551.91;;;17.18;57.39
62697;BME280;48761;42.680;23.312;2023-10-19T12:12:03;94549.66;;;17.31;57.02
62697;BME280;48761;42.680;23.312;2023-10-19T12:14:29;94552.25;;;17.05;57.44
62697;BME280;48761;42.680;23.312;2023-10-19T12:16:55;94532.94;;;17.19;56.97
62697;BME280;48761;42.680;23.312;2023-10-19T12:19:21;94541.16;;;17.18;57.19
62697;BME280;48761;42.680;23.312;2023-10-19T12:21:46;94533.25;;;16.98;57.64
62697;BME280;48761;42.680;23.312;2023-10-19T12:24:12;94531.25;;;17.18;56.68
62697;BME280;48761;42.680;23.312;2023-10-19T12:26:38;94538.63;;;17.16;56.85
62697;BME280;48761;42.680;23.312;2023-10-19T12:29:04;94528.94;;;17.23;56.45
62697;BME280;48761;42.680;23.312;2023-10-19T12:31:30;94522.53;;;16.98;56.82
62697;BME280;48761;42.680;23.312;2023-10-19T12:33:56;94522.91;;;17.03;57.40
62697;BME280;48761;42.680;23.312;2023-10-19T12:36:22;94522.53;;;16.98;57.47
62697;BME280;48761;42.680;23.312;2023-10-19T12:38:51;94519.84;;;16.98;57.75
62697;BME280;48761;42.680;23.312;2023-10-19T12:41:21;94518.72;;;17.27;57.00
62697;BME280;48761;42.680;23.312;2023-10-19T12:43:47;94499.63;;;17.12;57.01
62697;BME280;48761;42.680;23.312;2023-10-19T12:46:16;94518.19;;;17.50;56.59
62697;BME280;48761;42.680;23.312;2023-10-19T12:48:43;94514.41;;;17.34;56.73
62697;BME280;48761;42.680;23.312;2023-10-19T12:51:09;94506.50;;;17.33;56.99
62697;BME280;48761;42.680;23.312;2023-10-19T12:53:35;94508.41;;;17.41;56.60